Time;durP1;ratioP1;P1;durP2;ratioP2;P2;SDS_P1;SDS_P2;PMS_P1;PMS_P2;Temp;Humidity;BMP_temperature;BMP_pressure;BME280_temperature;BME280_humidity;BME280_pressure;Samples;Min_cycle;Max_cycle;Signal;HPM_P1;HPM_P2
2022/12/06 00:01:18;;;;;;;3.67;3.38;;;;;;;;;;5005743;28;20145;-72
2022/12/06 00:03:46;;;;;;;4.03;3.72;;;;;;;;;;5000350;28;20099;-72
2022/12/06 00:06:15;;;;;;;3.75;3.45;;;;;;;;;;5004026;28;20038;-73
2022/12/06 00:08:43;;;;;;;4.07;3.72;;;;;;;;;;5020215;28;24102;-72
2022/12/06 00:11:15;;;;;;;3.58;3.28;;;;;;;;;;5028735;28;20057;-72
2022/12/06 00:13:42;;;;;;;;;;;;;;;;;;5009527;28;20059;-72
2022/12/06 00:16:11;;;;;;;4.15;3.75;;;;;;;;;;5025324;28;19925;-73
2022/12/06 00:18:39;;;;;;;4.55;4.15;;;;;;;;;;5030759;28;20044;-72
2022/12/06 00:21:08;;;;;;;3.97;3.45;;;;;;;;;;5031075;28;20042;-72
2022/12/06 00:23:37;;;;;;;3.85;3.30;;;;;;;;;;5024516;28;20049;-73
2022/12/06 00:26:04;;;;;;;3.65;3.35;;;;;;;;;;5025571;28;20691;-73
2022/12/06 00:28:32;;;;;;;3.47;3.17;;;;;;;;;;5027095;28;20076;-72
2022/12/06 00:31:00;;;;;;;3.42;3.20;;;;;;;;;;5028537;28;20049;-74
2022/12/06 00:33:28;;;;;;;4.00;3.60;;;;;;;;;;5021048;28;20045;-73
2022/12/06 00:35:56;;;;;;;4.35;3.95;;;;;;;;;;5008273;28;20041;-74
2022/12/06 00:38:24;;;;;;;3.35;3.08;;;;;;;;;;5021735;28;20049;-73
2022/12/06 00:40:57;;;;;;;3.10;2.90;;;;;;;;;;5023323;28;20037;-74
2022/12/06 00:43:25;;;;;;;3.17;2.97;;;;;;;;;;4998329;28;20045;-72
2022/12/06 00:45:53;;;;;;;3.65;3.35;;;;;;;;;;4999653;28;20040;-73
2022/12/06 00:48:21;;;;;;;3.17;2.97;;;;;;;;;;5006313;28;20073;-72
2022/12/06 00:50:48;;;;;;;4.05;3.67;;;;;;;;;;5008766;28;20045;-72
2022/12/06 00:53:15;;;;;;;3.70;3.30;;;;;;;;;;5003936;28;20100;-72
2022/12/06 00:55:43;;;;;;;3.22;3.03;;;;;;;;;;4995276;28;20112;-72
2022/12/06 00:58:11;;;;;;;3.45;3.15;;;;;;;;;;5008874;28;20578;-73
2022/12/06 01:00:38;;;;;;;3.60;3.30;;;;;;;;;;5006541;28;20057;-72
2022/12/06 01:03:06;;;;;;;3.63;3.15;;;;;;;;;;5005418;28;20043;-72
2022/12/06 01:05:33;;;;;;;4.07;3.67;;;;;;;;;;4995741;28;20110;-73
2022/12/06 01:08:00;;;;;;;4.40;4.00;;;;;;;;;;5010558;28;20060;-72
2022/12/06 01:10:28;;;;;;;3.30;3.03;;;;;;;;;;5025639;28;20107;-73
2022/12/06 01:12:55;;;;;;;4.45;4.05;;;;;;;;;;5027485;28;20049;-73
2022/12/06 01:15:23;;;;;;;5.13;4.63;;;;;;;;;;5027575;28;20722;-73
2022/12/06 01:17:50;;;;;;;5.72;5.20;;;;;;;;;;5028101;28;20052;-72
2022/12/06 01:20:17;;;;;;;3.72;3.42;;;;;;;;;;5025352;28;20029;-73
2022/12/06 01:22:45;;;;;;;3.47;3.17;;;;;;;;;;5018079;28;20056;-72
2022/12/06 01:25:12;;;;;;;4.30;3.83;;;;;;;;;;5027748;28;20045;-74
2022/12/06 01:27:39;;;;;;;4.22;3.83;;;;;;;;;;5028075;28;20593;-73
2022/12/06 01:30:07;;;;;;;4.03;3.72;;;;;;;;;;5029100;28;20053;-73
2022/12/06 01:32:34;;;;;;;3.28;3.08;;;;;;;;;;5009593;28;20848;-72
2022/12/06 01:35:01;;;;;;;3.15;2.85;;;;;;;;;;5021814;28;20091;-72
2022/12/06 01:37:29;;;;;;;3.35;3.08;;;;;;;;;;5021361;28;20034;-72
2022/12/06 01:39:56;;;;;;;3.92;3.45;;;;;;;;;;5025383;28;20084;-73
2022/12/06 01:42:24;;;;;;;4.28;3.55;;;;;;;;;;5018780;28;20124;-71
2022/12/06 01:44:53;;;;;;;4.10;3.70;;;;;;;;;;5021601;28;20053;-72
2022/12/06 01:47:28;;;;;;;3.53;3.25;;;;;;;;;;5025851;28;20549;-72
2022/12/06 01:50:02;;;;;;;3.88;3.58;;;;;;;;;;5026401;28;20065;-72
2022/12/06 01:52:32;;;;;;;3.90;3.50;;;;;;;;;;5027029;28;20076;-71
2022/12/06 01:55:00;;;;;;;3.67;3.38;;;;;;;;;;5021512;28;20049;-72
2022/12/06 01:57:28;;;;;;;3.63;3.35;;;;;;;;;;5026739;28;20404;-71
2022/12/06 01:59:55;;;;;;;3.97;3.67;;;;;;;;;;5029012;28;20042;-71
2022/12/06 02:02:23;;;;;;;4.32;3.70;;;;;;;;;;5029613;28;20068;-71
2022/12/06 02:04:51;;;;;;;4.00;3.63;;;;;;;;;;5028319;28;20543;-71
2022/12/06 02:07:19;;;;;;;4.70;4.28;;;;;;;;;;5024188;28;20041;-72
2022/12/06 02:09:46;;;;;;;5.43;4.80;;;;;;;;;;5001285;28;20046;-72
2022/12/06 02:12:14;;;;;;;5.75;5.15;;;;;;;;;;5036992;22;20076;-71
2022/12/06 02:14:43;;;;;;;5.50;5.00;;;;;;;;;;5014133;28;20508;-72
2022/12/06 02:17:10;;;;;;;5.38;4.88;;;;;;;;;;5027915;28;20048;-72
2022/12/06 02:19:40;;;;;;;5.32;4.82;;;;;;;;;;5024211;28;20046;-73
2022/12/06 02:22:12;;;;;;;4.50;4.13;;;;;;;;;;5027894;28;20483;-72
2022/12/06 02:24:54;;;;;;;6.35;4.43;;;;;;;;;;5015431;28;20129;-73
2022/12/06 02:27:31;;;;;;;5.20;4.70;;;;;;;;;;5022644;28;20091;-73
2022/12/06 02:30:07;;;;;;;5.07;4.45;;;;;;;;;;5022589;28;20068;-73
2022/12/06 02:32:39;;;;;;;5.07;4.57;;;;;;;;;;5025748;28;20326;-73
2022/12/06 02:35:06;;;;;;;;;;;;;;;;;;5025540;28;20045;-73
2022/12/06 02:37:41;;;;;;;5.95;4.82;;;;;;;;;;5024040;28;20301;-73
2022/12/06 02:40:11;;;;;;;5.10;4.68;;;;;;;;;;5007271;28;20056;-73
2022/12/06 02:42:53;;;;;;;5.60;5.00;;;;;;;;;;5017145;28;20417;-73
2022/12/06 02:45:23;;;;;;;5.10;4.57;;;;;;;;;;5005037;28;20049;-73
2022/12/06 02:47:50;;;;;;;5.25;4.75;;;;;;;;;;5022639;28;20041;-70
2022/12/06 02:50:21;;;;;;;5.50;4.95;;;;;;;;;;5022755;28;20413;-71
2022/12/06 02:52:50;;;;;;;6.10;5.32;;;;;;;;;;5024518;28;20142;-72
2022/12/06 02:55:18;;;;;;;4.82;4.32;;;;;;;;;;5006590;28;20046;-72
2022/12/06 02:57:46;;;;;;;5.15;4.70;;;;;;;;;;5006199;28;20073;-72
2022/12/06 03:00:32;;;;;;;6.85;5.60;;;;;;;;;;5023994;28;20490;-72
2022/12/06 03:03:15;;;;;;;4.85;4.45;;;;;;;;;;5021157;28;20045;-72
2022/12/06 03:05:55;;;;;;;4.82;4.43;;;;;;;;;;5014703;28;20034;-71
2022/12/06 03:08:30;;;;;;;5.05;4.53;;;;;;;;;;5025563;28;20049;-72
2022/12/06 03:10:58;;;;;;;4.20;3.90;;;;;;;;;;5025464;28;20479;-71
2022/12/06 03:13:26;;;;;;;5.50;4.90;;;;;;;;;;5022396;28;20052;-70
2022/12/06 03:15:56;;;;;;;6.22;4.88;;;;;;;;;;5007116;28;20037;-71
2022/12/06 03:18:31;;;;;;;5.05;4.55;;;;;;;;;;5025250;28;20069;-70
2022/12/06 03:21:03;;;;;;;4.90;4.35;;;;;;;;;;5023655;28;20405;-71
2022/12/06 03:23:33;;;;;;;5.38;4.85;;;;;;;;;;5022492;28;20068;-70
2022/12/06 03:26:01;;;;;;;7.22;5.00;;;;;;;;;;5023732;28;20111;-69
2022/12/06 03:28:29;;;;;;;4.95;4.35;;;;;;;;;;5026861;28;20045;-70
2022/12/06 03:31:02;;;;;;;7.28;4.85;;;;;;;;;;5028111;28;20051;-70
2022/12/06 03:33:32;;;;;;;4.60;4.20;;;;;;;;;;5022833;28;20053;-70
2022/12/06 03:35:59;;;;;;;5.50;5.00;;;;;;;;;;5026041;28;20584;-70
2022/12/06 03:38:40;;;;;;;5.38;4.88;;;;;;;;;;5025240;28;20095;-70
2022/12/06 03:41:08;;;;;;;5.40;4.65;;;;;;;;;;5020994;28;20034;-70
2022/12/06 03:43:35;;;;;;;5.20;4.28;;;;;;;;;;5016068;28;20497;-70
2022/12/06 03:46:08;;;;;;;4.90;4.43;;;;;;;;;;5019981;28;20485;-69
2022/12/06 03:48:39;;;;;;;5.50;5.00;;;;;;;;;;5016605;28;20046;-71
2022/12/06 03:51:08;;;;;;;5.10;4.60;;;;;;;;;;5022760;28;20400;-71
2022/12/06 03:53:43;;;;;;;5.45;4.90;;;;;;;;;;5022934;28;20103;-70
2022/12/06 03:56:11;;;;;;;4.47;4.07;;;;;;;;;;5016105;28;20417;-70
2022/12/06 03:58:38;;;;;;;6.82;4.50;;;;;;;;;;5022546;28;20037;-71
2022/12/06 04:01:08;;;;;;;6.65;4.70;;;;;;;;;;5025199;28;20056;-70
2022/12/06 04:03:35;;;;;;;6.00;5.20;;;;;;;;;;5020947;28;20049;-71
2022/12/06 04:06:03;;;;;;;5.55;4.65;;;;;;;;;;5021820;28;20168;-70
2022/12/06 04:08:31;;;;;;;5.90;4.63;;;;;;;;;;5020072;28;20521;-70
2022/12/06 04:10:58;;;;;;;5.82;5.10;;;;;;;;;;5020257;28;20084;-71
2022/12/06 04:13:26;;;;;;;6.97;5.78;;;;;;;;;;5022106;28;20456;-71
2022/12/06 04:16:00;;;;;;;9.80;6.20;;;;;;;;;;5005547;28;20064;-70
2022/12/06 04:18:28;;;;;;;7.45;4.95;;;;;;;;;;5023297;28;20038;-70
2022/12/06 04:23:46;;;;;;;5.20;4.70;;;;;;;;;;5005392;28;20046;-71
2022/12/06 04:26:15;;;;;;;5.85;5.03;;;;;;;;;;4987386;28;20124;-70
2022/12/06 04:39:48;;;;;;;6.68;5.60;;;;;;;;;;5000115;28;20042;-70
2022/12/06 04:45:01;;;;;;;6.72;5.72;;;;;;;;;;5017748;28;20037;-71
2022/12/06 04:47:28;;;;;;;6.15;5.47;;;;;;;;;;5006726;28;20041;-70
2022/12/06 04:49:56;;;;;;;8.93;5.50;;;;;;;;;;5019059;28;20053;-71
2022/12/06 04:52:23;;;;;;;8.35;5.95;;;;;;;;;;5003476;28;20069;-70
2022/12/06 04:54:51;;;;;;;4.72;4.30;;;;;;;;;;5019601;28;20044;-71
2022/12/06 04:57:19;;;;;;;7.45;5.82;;;;;;;;;;5023999;28;20065;-70
2022/12/06 04:59:48;;;;;;;7.07;5.53;;;;;;;;;;5025656;28;20048;-70
2022/12/06 05:02:15;;;;;;;8.70;5.57;;;;;;;;;;5026182;28;20485;-71
2022/12/06 05:04:42;;;;;;;9.57;6.13;;;;;;;;;;4995081;28;20041;-71
2022/12/06 05:07:10;;;;;;;8.52;6.63;;;;;;;;;;5025999;28;20044;-70
2022/12/06 05:09:38;;;;;;;8.82;5.85;;;;;;;;;;5030130;28;20054;-72
2022/12/06 05:12:05;;;;;;;8.52;5.20;;;;;;;;;;5029952;28;20045;-71
2022/12/06 05:14:33;;;;;;;7.68;5.53;;;;;;;;;;5028943;28;20509;-71
2022/12/06 05:17:00;;;;;;;7.55;5.22;;;;;;;;;;5011787;28;20049;-71
2022/12/06 05:19:27;;;;;;;5.53;4.70;;;;;;;;;;5029247;28;20055;-70
2022/12/06 05:21:54;;;;;;;7.90;5.70;;;;;;;;;;5029389;28;20038;-71
2022/12/06 05:24:22;;;;;;;7.38;6.50;;;;;;;;;;5029226;28;20037;-71
2022/12/06 05:26:49;;;;;;;8.60;6.22;;;;;;;;;;5012037;28;20038;-71
2022/12/06 05:29:17;;;;;;;6.18;5.13;;;;;;;;;;5029715;28;20054;-71
2022/12/06 05:31:44;;;;;;;8.45;6.32;;;;;;;;;;5027145;28;20041;-71
2022/12/06 05:34:11;;;;;;;7.90;6.25;;;;;;;;;;5002878;28;20497;-70
2022/12/06 05:36:38;;;;;;;9.80;7.35;;;;;;;;;;5024102;28;20041;-70
2022/12/06 05:39:06;;;;;;;8.05;6.90;;;;;;;;;;5021911;28;20044;-71
2022/12/06 05:41:33;;;;;;;8.20;5.97;;;;;;;;;;5025049;28;20412;-71
2022/12/06 05:44:00;;;;;;;12.52;7.65;;;;;;;;;;5019320;28;20478;-71
2022/12/06 05:46:28;;;;;;;9.13;8.02;;;;;;;;;;5008013;28;20875;-71
2022/12/06 05:48:55;;;;;;;12.73;7.95;;;;;;;;;;4986001;28;20059;-70
2022/12/06 05:51:23;;;;;;;14.35;8.00;;;;;;;;;;5018210;28;20050;-70
2022/12/06 05:53:50;;;;;;;11.15;8.38;;;;;;;;;;5019993;28;20053;-70
2022/12/06 05:56:17;;;;;;;13.45;8.45;;;;;;;;;;5017416;28;20052;-70
2022/12/06 05:58:45;;;;;;;13.48;9.38;;;;;;;;;;5020665;28;20033;-70
2022/12/06 06:01:12;;;;;;;11.27;7.65;;;;;;;;;;5016355;28;20394;-70
2022/12/06 06:03:39;;;;;;;7.95;7.15;;;;;;;;;;5018153;28;20127;-71
2022/12/06 06:06:14;;;;;;;12.98;8.13;;;;;;;;;;5010049;28;20042;-71
2022/12/06 06:08:41;;;;;;;10.07;7.78;;;;;;;;;;5022629;28;20049;-71
2022/12/06 06:11:08;;;;;;;10.88;8.93;;;;;;;;;;5024549;28;20594;-71
2022/12/06 06:13:35;;;;;;;8.95;7.22;;;;;;;;;;5024210;28;20136;-71
2022/12/06 06:16:03;;;;;;;10.13;7.47;;;;;;;;;;5025685;28;20476;-70
2022/12/06 06:18:31;;;;;;;11.85;8.30;;;;;;;;;;5022500;28;20045;-71
2022/12/06 06:20:59;;;;;;;9.52;7.25;;;;;;;;;;5025494;28;20047;-71
2022/12/06 06:23:27;;;;;;;7.80;6.43;;;;;;;;;;5023448;28;20049;-71
2022/12/06 06:25:55;;;;;;;10.80;7.82;;;;;;;;;;5024196;28;20051;-71
2022/12/06 06:28:22;;;;;;;7.13;5.93;;;;;;;;;;5024431;28;20659;-71
2022/12/06 06:30:50;;;;;;;11.50;8.18;;;;;;;;;;5020001;28;20029;-71
2022/12/06 06:33:17;;;;;;;12.48;8.82;;;;;;;;;;5030663;28;20041;-71
2022/12/06 06:35:44;;;;;;;15.63;9.02;;;;;;;;;;5023590;28;20462;-71
2022/12/06 06:38:12;;;;;;;14.95;11.57;;;;;;;;;;5020691;28;20215;-72
2022/12/06 06:40:39;;;;;;;13.52;9.43;;;;;;;;;;5008452;28;20099;-71
2022/12/06 06:43:22;;;;;;;14.45;9.95;;;;;;;;;;5020925;28;20041;-71
2022/12/06 06:45:53;;;;;;;20.13;9.02;;;;;;;;;;5004700;28;20037;-71
2022/12/06 06:48:20;;;;;;;11.55;8.90;;;;;;;;;;5019689;28;20125;-72
2022/12/06 06:50:48;;;;;;;14.98;10.23;;;;;;;;;;5017407;28;20092;-72
2022/12/06 06:53:23;;;;;;;11.50;8.90;;;;;;;;;;5020173;28;20041;-71
2022/12/06 06:55:52;;;;;;;11.65;9.38;;;;;;;;;;5002501;28;20556;-72
2022/12/06 06:58:20;;;;;;;14.98;10.02;;;;;;;;;;5004360;28;20037;-72
2022/12/06 07:00:51;;;;;;;10.18;7.82;;;;;;;;;;4998274;28;20038;-72
2022/12/06 07:03:19;;;;;;;14.95;11.02;;;;;;;;;;4993634;28;20049;-72
2022/12/06 07:05:58;;;;;;;16.33;10.68;;;;;;;;;;5013318;28;20037;-72
2022/12/06 07:08:26;;;;;;;15.27;11.07;;;;;;;;;;5013487;28;20041;-72
2022/12/06 07:10:53;;;;;;;15.50;10.63;;;;;;;;;;5020060;28;20041;-72
2022/12/06 07:13:21;;;;;;;11.65;8.95;;;;;;;;;;5017941;28;20091;-72
2022/12/06 07:15:49;;;;;;;17.75;11.52;;;;;;;;;;5000857;28;20049;-72
2022/12/06 07:18:16;;;;;;;11.95;9.27;;;;;;;;;;5017648;28;20037;-72
2022/12/06 07:20:45;;;;;;;16.63;12.52;;;;;;;;;;5000896;28;20041;-73
2022/12/06 07:23:13;;;;;;;19.48;11.52;;;;;;;;;;5021433;28;20041;-73
2022/12/06 07:25:40;;;;;;;16.05;10.93;;;;;;;;;;5024310;28;20440;-72
2022/12/06 07:28:07;;;;;;;15.98;11.65;;;;;;;;;;5022455;28;20049;-72
2022/12/06 07:30:35;;;;;;;16.35;10.48;;;;;;;;;;5006514;28;20045;-72
2022/12/06 07:33:02;;;;;;;17.98;11.50;;;;;;;;;;5024745;28;20049;-72
2022/12/06 07:35:29;;;;;;;12.82;8.98;;;;;;;;;;5020123;28;20041;-72
2022/12/06 07:38:17;;;;;;;11.60;8.65;;;;;;;;;;5023671;28;20131;-72
2022/12/06 07:40:45;;;;;;;19.15;10.68;;;;;;;;;;5002291;28;20056;-72
2022/12/06 07:46:17;;;;;;;13.52;8.20;;;;;;;;;;5023758;28;20041;-73
2022/12/06 07:48:44;;;;;;;13.20;9.27;;;;;;;;;;5024107;28;20033;-72
2022/12/06 07:51:11;;;;;;;13.38;8.68;;;;;;;;;;5024855;28;20505;-72
2022/12/06 07:53:39;;;;;;;14.95;10.60;;;;;;;;;;5020457;28;20120;-72
2022/12/06 07:56:07;;;;;;;19.70;12.40;;;;;;;;;;5004885;28;20045;-72
2022/12/06 07:58:34;;;;;;;24.70;14.82;;;;;;;;;;5008407;28;20116;-72
2022/12/06 08:01:03;;;;;;;20.92;15.02;;;;;;;;;;5008910;28;20450;-72
2022/12/06 08:03:30;;;;;;;19.70;12.60;;;;;;;;;;5025649;28;20048;-71
2022/12/06 08:05:58;;;;;;;16.63;11.63;;;;;;;;;;5026367;28;20049;-71
2022/12/06 08:08:25;;;;;;;14.32;9.48;;;;;;;;;;5025787;28;20095;-71
2022/12/06 08:10:58;;;;;;;10.70;8.23;;;;;;;;;;5050596;22;20028;-71
2022/12/06 08:13:26;;;;;;;15.75;10.13;;;;;;;;;;5045189;28;20045;-70
2022/12/06 08:15:53;;;;;;;14.02;9.35;;;;;;;;;;5043095;28;20091;-71
2022/12/06 08:18:21;;;;;;;11.65;9.15;;;;;;;;;;5021619;28;20592;-72
2022/12/06 08:20:49;;;;;;;9.90;7.60;;;;;;;;;;5024057;28;20041;-72
2022/12/06 08:23:17;;;;;;;11.48;8.90;;;;;;;;;;5033284;28;20049;-72
2022/12/06 08:25:44;;;;;;;11.57;8.88;;;;;;;;;;5005586;28;20369;-72
2022/12/06 08:28:12;;;;;;;18.33;11.18;;;;;;;;;;5030260;28;20060;-73
2022/12/06 08:30:39;;;;;;;26.02;13.02;;;;;;;;;;5023664;28;20474;-72
2022/12/06 08:33:07;;;;;;;26.48;13.05;;;;;;;;;;5013923;28;20114;-73
2022/12/06 08:35:36;;;;;;;20.08;12.68;;;;;;;;;;5046538;28;20053;-72
2022/12/06 08:38:03;;;;;;;21.00;12.50;;;;;;;;;;5044004;28;20762;-72
2022/12/06 08:40:30;;;;;;;21.95;13.18;;;;;;;;;;5044327;28;20550;-71
2022/12/06 08:42:58;;;;;;;14.68;9.40;;;;;;;;;;5043867;28;20045;-72
2022/12/06 08:45:25;;;;;;;12.65;9.18;;;;;;;;;;5035420;28;20103;-73
2022/12/06 08:47:53;;;;;;;19.58;11.90;;;;;;;;;;5030561;28;20124;-72
2022/12/06 08:50:20;;;;;;;17.70;11.25;;;;;;;;;;5044348;28;20231;-71
2022/12/06 08:52:47;;;;;;;23.55;12.40;;;;;;;;;;5040111;28;20041;-73
2022/12/06 08:55:15;;;;;;;15.43;10.80;;;;;;;;;;5038385;28;20511;-72
2022/12/06 08:57:42;;;;;;;20.10;12.43;;;;;;;;;;5033317;28;20041;-73
2022/12/06 09:00:10;;;;;;;18.02;11.80;;;;;;;;;;5025146;28;20048;-73
2022/12/06 09:02:40;;;;;;;19.30;12.20;;;;;;;;;;5030255;28;20048;-73
2022/12/06 09:05:08;;;;;;;29.35;20.42;;;;;;;;;;5040221;28;20072;-73
2022/12/06 09:07:35;;;;;;;23.25;13.75;;;;;;;;;;5050078;28;20068;-71
2022/12/06 09:10:04;;;;;;;25.27;13.43;;;;;;;;;;5029098;28;20049;-73
2022/12/06 09:12:31;;;;;;;17.67;12.38;;;;;;;;;;5038611;28;20053;-72
2022/12/06 09:14:59;;;;;;;30.23;16.30;;;;;;;;;;5047969;28;20864;-73
2022/12/06 09:17:26;;;;;;;27.63;16.27;;;;;;;;;;5031144;28;20037;-73
2022/12/06 09:19:53;;;;;;;26.83;15.35;;;;;;;;;;5049707;28;20041;-72
2022/12/06 09:22:21;;;;;;;22.83;14.77;;;;;;;;;;5031813;28;20045;-72
2022/12/06 09:24:48;;;;;;;27.48;15.35;;;;;;;;;;5048780;28;20037;-72
2022/12/06 09:27:15;;;;;;;23.70;14.85;;;;;;;;;;5045625;28;20045;-72
2022/12/06 09:29:43;;;;;;;28.50;16.10;;;;;;;;;;5014905;28;20891;-72
2022/12/06 09:32:10;;;;;;;27.95;15.90;;;;;;;;;;5046644;28;20482;-72
2022/12/06 09:34:37;;;;;;;28.35;15.63;;;;;;;;;;5030468;28;20135;-72
2022/12/06 09:37:08;;;;;;;34.15;18.67;;;;;;;;;;5048396;28;20403;-72
2022/12/06 09:39:47;;;;;;;39.22;19.15;;;;;;;;;;5014596;28;20037;-73
2022/12/06 09:42:38;;;;;;;24.17;15.27;;;;;;;;;;5044356;28;20041;-72
2022/12/06 09:45:24;;;;;;;32.70;19.08;;;;;;;;;;5032622;28;20041;-72
2022/12/06 09:48:05;;;;;;;32.65;19.95;;;;;;;;;;5044531;28;20037;-72
2022/12/06 09:50:48;;;;;;;31.10;20.13;;;;;;;;;;5049474;28;20406;-72
2022/12/06 09:53:15;;;;;;;28.15;16.38;;;;;;;;;;5029992;28;20045;-73
2022/12/06 09:56:02;;;;;;;34.47;19.40;;;;;;;;;;5047083;28;20099;-72
2022/12/06 09:58:45;;;;;;;35.55;18.88;;;;;;;;;;5049157;28;20045;-71
2022/12/06 10:01:48;;;;;;;31.70;17.70;;;;;;;;;;5047258;28;20447;-72
2022/12/06 10:04:15;;;;;;;36.15;17.48;;;;;;;;;;4965088;28;20561;-72
2022/12/06 10:06:48;;;;;;;37.63;18.85;;;;;;;;;;5023148;28;20530;-71
2022/12/06 10:09:22;;;;;;;35.63;18.30;;;;;;;;;;5049648;28;20110;-73
2022/12/06 10:12:08;;;;;;;35.95;18.85;;;;;;;;;;5037482;28;20042;-72
2022/12/06 10:14:42;;;;;;;41.42;18.48;;;;;;;;;;5037957;28;20133;-72
2022/12/06 10:17:14;;;;;;;49.05;25.90;;;;;;;;;;5044134;28;20509;-72
2022/12/06 10:20:00;;;;;;;32.38;16.63;;;;;;;;;;5035895;28;20195;-72
2022/12/06 10:22:41;;;;;;;25.17;15.40;;;;;;;;;;5045572;28;20123;-72
2022/12/06 10:25:15;;;;;;;33.55;16.45;;;;;;;;;;5043340;28;20068;-72
2022/12/06 10:27:51;;;;;;;31.35;16.38;;;;;;;;;;5040928;28;20037;-72
2022/12/06 10:30:19;;;;;;;20.65;13.43;;;;;;;;;;5046449;28;20053;-73
2022/12/06 10:33:04;;;;;;;33.53;15.60;;;;;;;;;;5030007;28;20076;-72
2022/12/06 10:35:42;;;;;;;35.40;17.35;;;;;;;;;;5026550;28;20048;-72
2022/12/06 10:38:13;;;;;;;31.23;17.33;;;;;;;;;;5022854;28;20531;-73
2022/12/06 10:40:46;;;;;;;36.22;17.85;;;;;;;;;;5028198;28;20045;-73
2022/12/06 10:43:29;;;;;;;32.85;17.40;;;;;;;;;;5028640;28;20056;-72
2022/12/06 10:48:52;;;;;;;31.98;17.05;;;;;;;;;;5027610;28;20051;-73
2022/12/06 10:51:23;;;;;;;32.03;18.35;;;;;;;;;;5026964;28;20049;-72
2022/12/06 10:53:54;;;;;;;29.83;18.42;;;;;;;;;;5009860;28;20119;-73
2022/12/06 10:56:28;;;;;;;26.13;16.92;;;;;;;;;;5022172;28;20055;-72
2022/12/06 10:59:02;;;;;;;27.67;16.60;;;;;;;;;;5036838;28;20052;-72
2022/12/06 11:01:36;;;;;;;28.00;16.45;;;;;;;;;;5023534;28;20036;-72
2022/12/06 11:04:07;;;;;;;37.67;18.27;;;;;;;;;;5026390;28;20041;-72
2022/12/06 11:06:38;;;;;;;25.48;15.73;;;;;;;;;;5044011;28;20049;-72
2022/12/06 11:09:14;;;;;;;30.08;18.23;;;;;;;;;;5033323;28;20034;-72
2022/12/06 11:11:43;;;;;;;32.42;19.20;;;;;;;;;;4996714;28;20046;-72
2022/12/06 11:14:22;;;;;;;30.58;18.02;;;;;;;;;;5034651;28;20052;-72
2022/12/06 11:17:08;;;;;;;25.88;16.42;;;;;;;;;;5026269;28;20505;-72
2022/12/06 11:19:37;;;;;;;30.08;17.55;;;;;;;;;;5025928;28;20045;-72
2022/12/06 11:22:11;;;;;;;29.05;18.27;;;;;;;;;;5034888;28;20053;-72
2022/12/06 11:24:42;;;;;;;30.88;17.83;;;;;;;;;;5033960;28;20144;-72
2022/12/06 11:27:15;;;;;;;24.88;16.40;;;;;;;;;;5013489;28;20064;-72
2022/12/06 11:29:43;;;;;;;33.05;19.98;;;;;;;;;;5026341;28;20053;-72
2022/12/06 11:32:12;;;;;;;30.85;21.17;;;;;;;;;;5033873;28;20033;-72
2022/12/06 11:34:50;;;;;;;26.23;16.45;;;;;;;;;;5035825;28;20045;-71
2022/12/06 11:37:19;;;;;;;26.88;16.38;;;;;;;;;;5044733;28;20301;-73
2022/12/06 11:39:48;;;;;;;23.85;15.07;;;;;;;;;;5047345;28;20071;-72
2022/12/06 11:42:18;;;;;;;27.45;16.15;;;;;;;;;;5026281;28;20041;-72
2022/12/06 11:44:52;;;;;;;29.50;17.60;;;;;;;;;;5046755;28;20048;-72
2022/12/06 11:47:21;;;;;;;23.95;15.45;;;;;;;;;;5040715;28;20560;-72
2022/12/06 11:49:49;;;;;;;25.98;18.00;;;;;;;;;;5041457;28;20449;-72
2022/12/06 11:52:23;;;;;;;24.98;15.93;;;;;;;;;;5027325;28;20095;-73
2022/12/06 11:54:56;;;;;;;30.42;17.13;;;;;;;;;;5027881;28;20111;-73
2022/12/06 11:57:25;;;;;;;30.67;16.83;;;;;;;;;;5030189;28;20411;-73
2022/12/06 12:00:08;;;;;;;29.00;15.93;;;;;;;;;;5022830;28;20056;-73
2022/12/06 12:02:38;;;;;;;25.80;15.50;;;;;;;;;;5027330;28;20472;-72
2022/12/06 12:05:08;;;;;;;21.30;13.98;;;;;;;;;;5010884;28;20046;-72
2022/12/06 12:07:35;;;;;;;33.70;17.30;;;;;;;;;;5042563;28;20457;-73
2022/12/06 12:10:04;;;;;;;28.52;16.35;;;;;;;;;;5043433;28;20510;-72
2022/12/06 12:15:31;;;;;;;23.27;13.88;;;;;;;;;;5039302;28;20049;-73
2022/12/06 12:17:59;;;;;;;26.20;16.23;;;;;;;;;;5046408;28;20505;-72
2022/12/06 12:20:28;;;;;;;29.23;16.30;;;;;;;;;;5042271;28;20534;-72
2022/12/06 12:23:04;;;;;;;39.47;22.30;;;;;;;;;;5049334;28;20088;-72
2022/12/06 12:25:33;;;;;;;33.08;17.60;;;;;;;;;;5051103;28;20041;-72
2022/12/06 12:28:01;;;;;;;29.45;16.98;;;;;;;;;;5024169;28;20111;-71
2022/12/06 12:30:31;;;;;;;31.40;17.95;;;;;;;;;;5041855;28;20076;-73
2022/12/06 12:33:04;;;;;;;34.50;18.25;;;;;;;;;;5039253;28;20053;-71
2022/12/06 12:35:33;;;;;;;34.85;18.65;;;;;;;;;;5042651;28;20045;-72
2022/12/06 12:38:03;;;;;;;37.95;17.80;;;;;;;;;;5042908;28;20052;-73
2022/12/06 12:40:38;;;;;;;40.38;19.55;;;;;;;;;;5025721;28;20976;-72
2022/12/06 12:43:12;;;;;;;28.85;16.95;;;;;;;;;;5027390;28;20076;-73
2022/12/06 12:45:40;;;;;;;33.10;17.23;;;;;;;;;;5040794;28;20526;-73
2022/12/06 12:48:22;;;;;;;31.85;17.25;;;;;;;;;;5040457;28;20035;-71
2022/12/06 12:50:59;;;;;;;27.08;16.27;;;;;;;;;;5039305;28;20048;-73
2022/12/06 12:53:36;;;;;;;29.75;17.98;;;;;;;;;;5044792;28;20500;-73
2022/12/06 12:56:15;;;;;;;22.85;16.17;;;;;;;;;;5032261;28;20517;-73
2022/12/06 12:58:42;;;;;;;35.95;19.20;;;;;;;;;;5021315;28;20421;-72
2022/12/06 13:01:25;;;;;;;37.38;19.75;;;;;;;;;;5036162;28;20084;-72
2022/12/06 13:04:02;;;;;;;26.45;16.55;;;;;;;;;;5044732;28;20493;-72
2022/12/06 13:06:30;;;;;;;36.67;19.27;;;;;;;;;;5044294;28;20033;-72
2022/12/06 13:09:00;;;;;;;43.75;21.20;;;;;;;;;;5028540;28;20056;-73
2022/12/06 13:11:28;;;;;;;33.05;18.60;;;;;;;;;;5050349;28;20044;-73
2022/12/06 13:13:56;;;;;;;31.90;19.92;;;;;;;;;;5025058;28;20040;-72
2022/12/06 13:16:27;;;;;;;34.90;19.52;;;;;;;;;;5022928;28;20052;-73
2022/12/06 13:18:55;;;;;;;40.75;20.92;;;;;;;;;;5049007;28;20051;-73
2022/12/06 13:21:36;;;;;;;37.17;20.67;;;;;;;;;;5050581;28;20049;-72
2022/12/06 13:24:10;;;;;;;32.40;18.30;;;;;;;;;;5042290;28;20779;-73
2022/12/06 13:26:43;;;;;;;35.58;18.35;;;;;;;;;;5044914;28;20033;-73
2022/12/06 13:29:13;;;;;;;41.45;20.30;;;;;;;;;;5044171;28;20049;-73
2022/12/06 13:31:41;;;;;;;41.95;20.40;;;;;;;;;;5044189;28;20041;-72
2022/12/06 13:34:23;;;;;;;33.42;19.20;;;;;;;;;;5039122;28;20045;-73
2022/12/06 13:36:51;;;;;;;;;;;;;;;;;;5030132;28;20048;-73
2022/12/06 13:39:25;;;;;;;37.22;20.08;;;;;;;;;;5035537;28;19925;-74
2022/12/06 13:44:49;;;;;;;42.95;24.10;;;;;;;;;;5038016;28;20043;-73
2022/12/06 13:47:26;;;;;;;34.53;20.65;;;;;;;;;;5019945;28;20080;-74
2022/12/06 13:49:57;;;;;;;37.60;22.60;;;;;;;;;;5012515;28;20140;-74
2022/12/06 13:52:43;;;;;;;36.40;20.30;;;;;;;;;;5023701;28;20081;-74
2022/12/06 13:55:27;;;;;;;33.53;20.17;;;;;;;;;;5038181;28;20580;-73
2022/12/06 13:57:54;;;;;;;34.70;19.23;;;;;;;;;;5033516;28;20037;-72
2022/12/06 14:00:31;;;;;;;27.90;17.45;;;;;;;;;;5036779;28;20428;-73
2022/12/06 14:03:03;;;;;;;35.50;20.55;;;;;;;;;;5045870;28;20044;-73
2022/12/06 14:05:30;;;;;;;;;;;;;;;;;;5031319;28;20047;-73
2022/12/06 14:07:57;;;;;;;28.85;17.58;;;;;;;;;;5043323;28;20324;-73
2022/12/06 14:10:25;;;;;;;40.17;22.25;;;;;;;;;;5034110;28;20043;-73
2022/12/06 14:13:00;;;;;;;32.55;21.17;;;;;;;;;;5042182;23;20045;-71
2022/12/06 14:15:27;;;;;;;34.22;20.98;;;;;;;;;;5025103;28;20596;-70
2022/12/06 14:17:55;;;;;;;38.38;23.02;;;;;;;;;;5029083;28;20464;-71
2022/12/06 14:20:41;;;;;;;49.95;24.25;;;;;;;;;;5028516;28;20351;-70
2022/12/06 14:23:27;;;;;;;39.90;22.73;;;;;;;;;;5011267;28;20041;-70
2022/12/06 14:26:10;;;;;;;37.28;21.58;;;;;;;;;;5028168;28;20143;-71
2022/12/06 14:28:38;;;;;;;44.60;22.73;;;;;;;;;;5027752;28;20600;-71
2022/12/06 14:31:06;;;;;;;37.47;22.13;;;;;;;;;;5028814;28;20053;-71
2022/12/06 14:33:38;;;;;;;32.72;21.38;;;;;;;;;;5021331;28;20046;-71
2022/12/06 14:36:06;;;;;;;27.40;17.58;;;;;;;;;;5014720;28;20045;-70
2022/12/06 14:38:40;;;;;;;36.83;22.50;;;;;;;;;;4988488;28;20033;-71
2022/12/06 14:44:26;;;;;;;32.97;21.17;;;;;;;;;;5026914;28;20049;-71
2022/12/06 14:46:54;;;;;;;40.28;23.85;;;;;;;;;;5011861;28;20034;-71
2022/12/06 14:52:22;;;;;;;59.20;30.50;;;;;;;;;;5027600;28;20041;-70
2022/12/06 14:54:50;;;;;;;39.20;24.60;;;;;;;;;;5010404;28;20046;-70
2022/12/06 14:57:29;;;;;;;43.60;26.17;;;;;;;;;;5027281;28;20037;-70
2022/12/06 15:00:14;;;;;;;42.90;23.50;;;;;;;;;;5021059;28;20045;-71
2022/12/06 15:03:11;;;;;;;28.42;17.90;;;;;;;;;;5027564;28;20519;-70
2022/12/06 15:05:43;;;;;;;36.72;19.05;;;;;;;;;;5027501;28;20119;-70
2022/12/06 15:08:37;;;;;;;34.50;19.55;;;;;;;;;;5027917;28;20037;-70
2022/12/06 15:14:06;;;;;;;;;;;;;;;;;;5027658;28;20540;-72
2022/12/06 15:16:34;;;;;;;31.08;17.83;;;;;;;;;;5028135;28;19932;-72
2022/12/06 15:19:01;;;;;;;29.42;18.67;;;;;;;;;;5010188;28;20045;-71
2022/12/06 15:21:28;;;;;;;35.55;18.33;;;;;;;;;;5027418;28;20041;-71
2022/12/06 15:23:56;;;;;;;33.15;19.83;;;;;;;;;;5026885;28;20207;-71
2022/12/06 15:26:24;;;;;;;28.70;18.30;;;;;;;;;;5026543;28;20034;-71
2022/12/06 15:28:51;;;;;;;34.72;20.20;;;;;;;;;;5027394;28;20173;-72